sensor_id;sensor_type;location;lat;lon;timestamp;temperature;humidity
55634;DHT22;41504;53.162;6.788;2022-10-22T00:01:06;13.20;94.30
55634;DHT22;41504;53.162;6.788;2022-10-22T00:03:32;13.20;94.30
55634;DHT22;41504;53.162;6.788;2022-10-22T00:05:58;13.20;94.30
55634;DHT22;41504;53.162;6.788;2022-10-22T00:08:27;13.20;94.30
55634;DHT22;41504;53.162;6.788;2022-10-22T00:10:53;13.20;94.30
55634;DHT22;41504;53.162;6.788;2022-10-22T00:13:19;13.20;94.30
55634;DHT22;41504;53.162;6.788;2022-10-22T00:15:45;13.10;94.30
55634;DHT22;41504;53.162;6.788;2022-10-22T00:18:10;13.10;94.30
55634;DHT22;41504;53.162;6.788;2022-10-22T00:20:36;13.10;94.30
55634;DHT22;41504;53.162;6.788;2022-10-22T00:23:02;13.10;94.40
55634;DHT22;41504;53.162;6.788;2022-10-22T00:25:28;13.10;94.40
55634;DHT22;41504;53.162;6.788;2022-10-22T00:27:54;13.00;94.30
55634;DHT22;41504;53.162;6.788;2022-10-22T00:30:19;13.10;94.40
55634;DHT22;41504;53.162;6.788;2022-10-22T00:32:45;13.00;94.40
55634;DHT22;41504;53.162;6.788;2022-10-22T00:35:11;13.00;94.40
55634;DHT22;41504;53.162;6.788;2022-10-22T00:37:39;13.00;94.40
55634;DHT22;41504;53.162;6.788;2022-10-22T00:40:06;13.00;94.40
55634;DHT22;41504;53.162;6.788;2022-10-22T00:42:31;13.00;94.40
55634;DHT22;41504;53.162;6.788;2022-10-22T00:47:45;13.00;94.40
55634;DHT22;41504;53.162;6.788;2022-10-22T00:50:22;12.90;94.30
55634;DHT22;41504;53.162;6.788;2022-10-22T00:52:49;12.90;94.40
55634;DHT22;41504;53.162;6.788;2022-10-22T00:55:16;12.90;94.40
55634;DHT22;41504;53.162;6.788;2022-10-22T00:57:43;12.90;94.40
55634;DHT22;41504;53.162;6.788;2022-10-22T01:00:09;12.90;94.40
55634;DHT22;41504;53.162;6.788;2022-10-22T01:02:38;12.90;94.40
55634;DHT22;41504;53.162;6.788;2022-10-22T01:05:07;12.90;94.40
55634;DHT22;41504;53.162;6.788;2022-10-22T01:07:40;12.90;94.40
55634;DHT22;41504;53.162;6.788;2022-10-22T01:15:33;12.90;94.30
55634;DHT22;41504;53.162;6.788;2022-10-22T01:18:10;12.80;94.30
55634;DHT22;41504;53.162;6.788;2022-10-22T01:26:04;12.80;94.30
55634;DHT22;41504;53.162;6.788;2022-10-22T01:31:16;12.90;94.30
55634;DHT22;41504;53.162;6.788;2022-10-22T01:33:45;12.80;94.30
55634;DHT22;41504;53.162;6.788;2022-10-22T01:36:13;12.80;94.30
55634;DHT22;41504;53.162;6.788;2022-10-22T01:38:40;12.80;94.30
55634;DHT22;41504;53.162;6.788;2022-10-22T01:41:07;12.80;94.30
55634;DHT22;41504;53.162;6.788;2022-10-22T01:43:35;12.80;94.30
55634;DHT22;41504;53.162;6.788;2022-10-22T01:46:03;12.80;94.30
55634;DHT22;41504;53.162;6.788;2022-10-22T01:48:44;12.80;94.30
55634;DHT22;41504;53.162;6.788;2022-10-22T01:51:33;12.80;94.30
55634;DHT22;41504;53.162;6.788;2022-10-22T01:54:43;12.80;94.20
55634;DHT22;41504;53.162;6.788;2022-10-22T01:57:26;12.80;94.20
55634;DHT22;41504;53.162;6.788;2022-10-22T02:00:00;12.80;94.30
55634;DHT22;41504;53.162;6.788;2022-10-22T02:02:35;12.70;94.20
55634;DHT22;41504;53.162;6.788;2022-10-22T02:08:03;12.80;94.20
55634;DHT22;41504;53.162;6.788;2022-10-22T02:10:31;12.70;94.20
55634;DHT22;41504;53.162;6.788;2022-10-22T02:12:58;12.70;94.20
55634;DHT22;41504;53.162;6.788;2022-10-22T02:15:27;12.80;94.20
55634;DHT22;41504;53.162;6.788;2022-10-22T02:17:55;12.80;94.20
55634;DHT22;41504;53.162;6.788;2022-10-22T02:20:27;12.80;94.20
55634;DHT22;41504;53.162;6.788;2022-10-22T02:22:54;12.70;94.20
55634;DHT22;41504;53.162;6.788;2022-10-22T02:25:28;12.70;94.20
55634;DHT22;41504;53.162;6.788;2022-10-22T02:28:18;12.70;94.20
55634;DHT22;41504;53.162;6.788;2022-10-22T02:30:51;12.70;94.10
55634;DHT22;41504;53.162;6.788;2022-10-22T02:33:29;12.70;94.20
55634;DHT22;41504;53.162;6.788;2022-10-22T02:35:55;12.70;94.20
55634;DHT22;41504;53.162;6.788;2022-10-22T02:38:23;12.70;94.20
55634;DHT22;41504;53.162;6.788;2022-10-22T02:40:50;12.70;94.10
55634;DHT22;41504;53.162;6.788;2022-10-22T02:43:17;12.70;94.20
55634;DHT22;41504;53.162;6.788;2022-10-22T02:45:43;12.70;94.40
55634;DHT22;41504;53.162;6.788;2022-10-22T02:48:11;12.70;94.20
55634;DHT22;41504;53.162;6.788;2022-10-22T02:50:37;12.70;94.20
55634;DHT22;41504;53.162;6.788;2022-10-22T02:53:06;12.70;94.20
55634;DHT22;41504;53.162;6.788;2022-10-22T02:55:32;12.70;94.20
55634;DHT22;41504;53.162;6.788;2022-10-22T02:57:57;12.70;94.20
55634;DHT22;41504;53.162;6.788;2022-10-22T03:00:23;12.60;94.20
55634;DHT22;41504;53.162;6.788;2022-10-22T03:02:49;12.70;94.20
55634;DHT22;41504;53.162;6.788;2022-10-22T03:05:17;12.60;94.10
55634;DHT22;41504;53.162;6.788;2022-10-22T03:07:43;12.70;94.20
55634;DHT22;41504;53.162;6.788;2022-10-22T03:10:09;12.60;94.10
55634;DHT22;41504;53.162;6.788;2022-10-22T03:12:35;12.60;94.10
55634;DHT22;41504;53.162;6.788;2022-10-22T03:15:01;12.60;94.20
55634;DHT22;41504;53.162;6.788;2022-10-22T03:17:26;12.60;94.20
55634;DHT22;41504;53.162;6.788;2022-10-22T03:19:52;12.60;94.20
55634;DHT22;41504;53.162;6.788;2022-10-22T03:22:25;12.50;94.10
55634;DHT22;41504;53.162;6.788;2022-10-22T03:24:54;12.60;94.10
55634;DHT22;41504;53.162;6.788;2022-10-22T03:27:23;12.50;94.10
55634;DHT22;41504;53.162;6.788;2022-10-22T03:29:50;12.50;94.10
55634;DHT22;41504;53.162;6.788;2022-10-22T03:32:19;12.50;94.10
55634;DHT22;41504;53.162;6.788;2022-10-22T03:34:45;12.50;94.10
55634;DHT22;41504;53.162;6.788;2022-10-22T03:37:11;12.50;94.10
55634;DHT22;41504;53.162;6.788;2022-10-22T03:39:37;12.40;94.10
55634;DHT22;41504;53.162;6.788;2022-10-22T03:42:04;12.40;94.10
55634;DHT22;41504;53.162;6.788;2022-10-22T03:44:31;12.40;94.10
55634;DHT22;41504;53.162;6.788;2022-10-22T03:46:57;12.40;94.10
55634;DHT22;41504;53.162;6.788;2022-10-22T03:49:23;12.40;94.10
55634;DHT22;41504;53.162;6.788;2022-10-22T03:51:48;12.40;94.10
55634;DHT22;41504;53.162;6.788;2022-10-22T03:54:15;12.40;94.10
55634;DHT22;41504;53.162;6.788;2022-10-22T03:56:41;12.30;94.10
55634;DHT22;41504;53.162;6.788;2022-10-22T03:59:07;12.30;94.10
55634;DHT22;41504;53.162;6.788;2022-10-22T04:01:33;12.30;94.10
55634;DHT22;41504;53.162;6.788;2022-10-22T04:03:58;12.30;94.10
55634;DHT22;41504;53.162;6.788;2022-10-22T04:06:24;12.20;94.10
55634;DHT22;41504;53.162;6.788;2022-10-22T04:08:50;12.20;94.10
55634;DHT22;41504;53.162;6.788;2022-10-22T04:11:16;12.20;94.10
55634;DHT22;41504;53.162;6.788;2022-10-22T04:13:43;12.20;94.10
55634;DHT22;41504;53.162;6.788;2022-10-22T04:18:39;12.20;94.10
55634;DHT22;41504;53.162;6.788;2022-10-22T04:21:07;12.10;94.10
55634;DHT22;41504;53.162;6.788;2022-10-22T04:23:36;12.10;94.10
55634;DHT22;41504;53.162;6.788;2022-10-22T04:26:05;12.10;94.10
55634;DHT22;41504;53.162;6.788;2022-10-22T04:28:33;12.10;94.10
55634;DHT22;41504;53.162;6.788;2022-10-22T04:30:58;12.00;94.30
55634;DHT22;41504;53.162;6.788;2022-10-22T04:33:24;12.00;94.10
55634;DHT22;41504;53.162;6.788;2022-10-22T04:35:50;12.00;94.10
55634;DHT22;41504;53.162;6.788;2022-10-22T04:38:16;12.00;94.10
55634;DHT22;41504;53.162;6.788;2022-10-22T04:40:42;12.00;94.10
55634;DHT22;41504;53.162;6.788;2022-10-22T04:43:08;12.00;94.10
55634;DHT22;41504;53.162;6.788;2022-10-22T04:45:34;12.00;94.10
55634;DHT22;41504;53.162;6.788;2022-10-22T04:48:00;12.10;94.10
55634;DHT22;41504;53.162;6.788;2022-10-22T04:50:26;12.00;94.10
55634;DHT22;41504;53.162;6.788;2022-10-22T04:52:52;12.00;94.10
55634;DHT22;41504;53.162;6.788;2022-10-22T04:55:17;12.00;94.10
55634;DHT22;41504;53.162;6.788;2022-10-22T04:57:43;12.00;94.10
55634;DHT22;41504;53.162;6.788;2022-10-22T05:00:21;12.00;94.10
55634;DHT22;41504;53.162;6.788;2022-10-22T05:02:50;12.00;94.10
55634;DHT22;41504;53.162;6.788;2022-10-22T05:05:16;12.00;94.30
55634;DHT22;41504;53.162;6.788;2022-10-22T05:07:41;12.00;94.10
55634;DHT22;41504;53.162;6.788;2022-10-22T05:10:07;12.00;94.10
55634;DHT22;41504;53.162;6.788;2022-10-22T05:12:34;12.10;94.10
55634;DHT22;41504;53.162;6.788;2022-10-22T05:15:00;12.00;94.10
55634;DHT22;41504;53.162;6.788;2022-10-22T05:17:28;12.10;94.10
55634;DHT22;41504;53.162;6.788;2022-10-22T05:19:54;12.10;94.10
55634;DHT22;41504;53.162;6.788;2022-10-22T05:22:20;12.10;94.10
55634;DHT22;41504;53.162;6.788;2022-10-22T05:24:45;12.10;94.10
55634;DHT22;41504;53.162;6.788;2022-10-22T05:27:13;12.00;94.10
55634;DHT22;41504;53.162;6.788;2022-10-22T05:29:42;12.10;94.10
55634;DHT22;41504;53.162;6.788;2022-10-22T05:32:08;12.10;94.10
55634;DHT22;41504;53.162;6.788;2022-10-22T05:34:33;12.10;94.10
55634;DHT22;41504;53.162;6.788;2022-10-22T05:37:00;12.10;94.10
55634;DHT22;41504;53.162;6.788;2022-10-22T05:39:26;12.10;94.10
55634;DHT22;41504;53.162;6.788;2022-10-22T05:41:55;12.10;94.10
55634;DHT22;41504;53.162;6.788;2022-10-22T05:44:21;12.10;94.10
55634;DHT22;41504;53.162;6.788;2022-10-22T05:46:47;12.10;94.30
55634;DHT22;41504;53.162;6.788;2022-10-22T05:49:14;12.10;94.10
55634;DHT22;41504;53.162;6.788;2022-10-22T05:51:40;12.10;94.10
55634;DHT22;41504;53.162;6.788;2022-10-22T05:54:07;12.10;94.10
55634;DHT22;41504;53.162;6.788;2022-10-22T05:56:33;12.10;94.10
55634;DHT22;41504;53.162;6.788;2022-10-22T05:59:05;12.10;94.10
55634;DHT22;41504;53.162;6.788;2022-10-22T06:01:34;12.00;94.10
55634;DHT22;41504;53.162;6.788;2022-10-22T06:04:02;12.00;94.10
55634;DHT22;41504;53.162;6.788;2022-10-22T06:06:46;12.10;94.10
55634;DHT22;41504;53.162;6.788;2022-10-22T06:09:17;12.10;94.10
55634;DHT22;41504;53.162;6.788;2022-10-22T06:11:47;12.10;94.10
55634;DHT22;41504;53.162;6.788;2022-10-22T16:59:25;14.10;90.20
55634;DHT22;41504;53.162;6.788;2022-10-22T17:01:51;14.00;90.90
55634;DHT22;41504;53.162;6.788;2022-10-22T17:04:17;13.90;91.30
55634;DHT22;41504;53.162;6.788;2022-10-22T17:06:42;13.90;91.60
55634;DHT22;41504;53.162;6.788;2022-10-22T17:09:12;13.90;91.90
55634;DHT22;41504;53.162;6.788;2022-10-22T17:11:38;13.90;92.20
55634;DHT22;41504;53.162;6.788;2022-10-22T17:14:09;13.80;92.40
55634;DHT22;41504;53.162;6.788;2022-10-22T17:16:35;13.80;92.60
55634;DHT22;41504;53.162;6.788;2022-10-22T17:19:02;13.80;92.70
55634;DHT22;41504;53.162;6.788;2022-10-22T17:21:28;13.80;92.80
55634;DHT22;41504;53.162;6.788;2022-10-22T17:23:55;13.70;92.90
55634;DHT22;41504;53.162;6.788;2022-10-22T17:26:22;13.70;93.00
55634;DHT22;41504;53.162;6.788;2022-10-22T17:28:48;13.70;93.00
55634;DHT22;41504;53.162;6.788;2022-10-22T17:31:40;13.70;93.10
55634;DHT22;41504;53.162;6.788;2022-10-22T17:34:09;13.60;93.10
55634;DHT22;41504;53.162;6.788;2022-10-22T17:36:35;13.60;93.20
55634;DHT22;41504;53.162;6.788;2022-10-22T17:39:12;13.60;93.20
55634;DHT22;41504;53.162;6.788;2022-10-22T17:41:40;13.60;93.30
55634;DHT22;41504;53.162;6.788;2022-10-22T17:44:06;13.50;93.20
55634;DHT22;41504;53.162;6.788;2022-10-22T17:46:33;13.50;93.30
55634;DHT22;41504;53.162;6.788;2022-10-22T17:49:04;13.50;93.30
55634;DHT22;41504;53.162;6.788;2022-10-22T17:51:31;13.40;93.20
55634;DHT22;41504;53.162;6.788;2022-10-22T17:53:57;13.40;93.20
55634;DHT22;41504;53.162;6.788;2022-10-22T17:56:26;13.30;93.20
55634;DHT22;41504;53.162;6.788;2022-10-22T17:58:52;13.30;93.10
55634;DHT22;41504;53.162;6.788;2022-10-22T18:01:23;13.20;93.10
55634;DHT22;41504;53.162;6.788;2022-10-22T18:03:53;13.20;93.10
55634;DHT22;41504;53.162;6.788;2022-10-22T18:06:19;13.20;93.10
55634;DHT22;41504;53.162;6.788;2022-10-22T18:08:45;13.20;93.10
55634;DHT22;41504;53.162;6.788;2022-10-22T18:11:16;13.20;93.00
55634;DHT22;41504;53.162;6.788;2022-10-22T18:13:42;13.20;93.00
55634;DHT22;41504;53.162;6.788;2022-10-22T18:16:11;13.10;92.90
55634;DHT22;41504;53.162;6.788;2022-10-22T18:18:36;13.10;92.90
55634;DHT22;41504;53.162;6.788;2022-10-22T18:21:02;13.10;92.90
55634;DHT22;41504;53.162;6.788;2022-10-22T18:23:29;13.10;92.90
55634;DHT22;41504;53.162;6.788;2022-10-22T18:25:55;13.10;92.90
55634;DHT22;41504;53.162;6.788;2022-10-22T18:28:22;13.00;92.80
55634;DHT22;41504;53.162;6.788;2022-10-22T18:30:47;12.90;92.70
55634;DHT22;41504;53.162;6.788;2022-10-22T18:33:15;13.00;92.70
55634;DHT22;41504;53.162;6.788;2022-10-22T18:35:41;12.90;92.70
55634;DHT22;41504;53.162;6.788;2022-10-22T18:38:09;12.90;92.70
55634;DHT22;41504;53.162;6.788;2022-10-22T18:40:35;12.90;92.70
55634;DHT22;41504;53.162;6.788;2022-10-22T18:43:03;12.90;92.70
55634;DHT22;41504;53.162;6.788;2022-10-22T18:45:28;12.90;92.70
55634;DHT22;41504;53.162;6.788;2022-10-22T18:47:54;12.80;92.60
55634;DHT22;41504;53.162;6.788;2022-10-22T18:50:20;12.80;92.70
55634;DHT22;41504;53.162;6.788;2022-10-22T18:52:45;12.80;92.60
55634;DHT22;41504;53.162;6.788;2022-10-22T18:55:11;12.70;92.60
55634;DHT22;41504;53.162;6.788;2022-10-22T18:57:37;12.70;92.60
55634;DHT22;41504;53.162;6.788;2022-10-22T19:00:04;12.70;92.60
55634;DHT22;41504;53.162;6.788;2022-10-22T19:02:30;12.70;92.50
55634;DHT22;41504;53.162;6.788;2022-10-22T19:04:55;12.60;92.50
55634;DHT22;41504;53.162;6.788;2022-10-22T19:07:24;12.60;92.50
55634;DHT22;41504;53.162;6.788;2022-10-22T19:09:50;12.60;92.50
55634;DHT22;41504;53.162;6.788;2022-10-22T19:12:18;12.60;92.50
55634;DHT22;41504;53.162;6.788;2022-10-22T19:14:46;12.50;92.50
55634;DHT22;41504;53.162;6.788;2022-10-22T19:17:13;12.50;92.50
55634;DHT22;41504;53.162;6.788;2022-10-22T19:19:39;12.50;92.50
55634;DHT22;41504;53.162;6.788;2022-10-22T19:22:04;12.50;92.50
55634;DHT22;41504;53.162;6.788;2022-10-22T19:24:30;12.50;92.40
55634;DHT22;41504;53.162;6.788;2022-10-22T19:26:56;12.50;92.40
55634;DHT22;41504;53.162;6.788;2022-10-22T19:29:21;12.50;92.40
55634;DHT22;41504;53.162;6.788;2022-10-22T19:31:47;12.40;92.40
55634;DHT22;41504;53.162;6.788;2022-10-22T19:34:17;12.40;92.30
55634;DHT22;41504;53.162;6.788;2022-10-22T19:36:43;12.40;92.30
55634;DHT22;41504;53.162;6.788;2022-10-22T19:39:09;12.40;92.30
55634;DHT22;41504;53.162;6.788;2022-10-22T19:41:35;12.40;92.30
55634;DHT22;41504;53.162;6.788;2022-10-22T19:44:00;12.30;92.30
55634;DHT22;41504;53.162;6.788;2022-10-22T19:46:29;12.30;92.30
55634;DHT22;41504;53.162;6.788;2022-10-22T19:48:56;12.30;92.30
55634;DHT22;41504;53.162;6.788;2022-10-22T19:51:25;12.30;92.30
55634;DHT22;41504;53.162;6.788;2022-10-22T19:53:59;12.30;92.30
55634;DHT22;41504;53.162;6.788;2022-10-22T19:56:29;12.20;92.20
55634;DHT22;41504;53.162;6.788;2022-10-22T19:58:55;12.30;92.20
55634;DHT22;41504;53.162;6.788;2022-10-22T20:01:21;12.30;92.20
55634;DHT22;41504;53.162;6.788;2022-10-22T20:03:47;12.20;92.20
55634;DHT22;41504;53.162;6.788;2022-10-22T20:06:15;12.20;92.20
55634;DHT22;41504;53.162;6.788;2022-10-22T20:08:41;12.20;92.20
55634;DHT22;41504;53.162;6.788;2022-10-22T20:11:10;12.20;92.20
55634;DHT22;41504;53.162;6.788;2022-10-22T20:13:37;12.10;92.20
55634;DHT22;41504;53.162;6.788;2022-10-22T20:16:03;12.10;92.20
55634;DHT22;41504;53.162;6.788;2022-10-22T20:18:30;12.10;92.20
55634;DHT22;41504;53.162;6.788;2022-10-22T20:21:02;12.10;92.20
55634;DHT22;41504;53.162;6.788;2022-10-22T20:23:27;12.10;92.20
55634;DHT22;41504;53.162;6.788;2022-10-22T20:25:53;12.10;92.20
55634;DHT22;41504;53.162;6.788;2022-10-22T20:28:19;12.10;92.20
55634;DHT22;41504;53.162;6.788;2022-10-22T20:30:45;12.10;92.20
55634;DHT22;41504;53.162;6.788;2022-10-22T20:33:11;12.00;92.20
55634;DHT22;41504;53.162;6.788;2022-10-22T20:35:41;12.00;92.20
55634;DHT22;41504;53.162;6.788;2022-10-22T20:38:14;12.00;92.10
55634;DHT22;41504;53.162;6.788;2022-10-22T20:40:40;12.00;92.10
55634;DHT22;41504;53.162;6.788;2022-10-22T20:43:05;12.00;92.10
55634;DHT22;41504;53.162;6.788;2022-10-22T20:45:31;11.90;92.10
55634;DHT22;41504;53.162;6.788;2022-10-22T20:47:57;11.90;92.10
55634;DHT22;41504;53.162;6.788;2022-10-22T20:50:25;11.90;92.10
55634;DHT22;41504;53.162;6.788;2022-10-22T20:52:55;11.90;92.10
55634;DHT22;41504;53.162;6.788;2022-10-22T20:55:21;11.90;92.10
55634;DHT22;41504;53.162;6.788;2022-10-22T20:57:47;11.90;92.20
55634;DHT22;41504;53.162;6.788;2022-10-22T21:00:13;11.90;92.20
55634;DHT22;41504;53.162;6.788;2022-10-22T21:02:39;11.80;92.10
55634;DHT22;41504;53.162;6.788;2022-10-22T21:05:05;11.80;92.20
55634;DHT22;41504;53.162;6.788;2022-10-22T21:07:31;11.80;92.20
55634;DHT22;41504;53.162;6.788;2022-10-22T21:09:57;11.80;92.10
55634;DHT22;41504;53.162;6.788;2022-10-22T21:12:22;11.80;92.10
55634;DHT22;41504;53.162;6.788;2022-10-22T21:14:48;11.80;92.10
55634;DHT22;41504;53.162;6.788;2022-10-22T21:17:14;11.80;92.10
55634;DHT22;41504;53.162;6.788;2022-10-22T21:19:40;11.80;92.10
55634;DHT22;41504;53.162;6.788;2022-10-22T21:22:09;11.90;92.10
55634;DHT22;41504;53.162;6.788;2022-10-22T21:24:34;11.80;92.10
55634;DHT22;41504;53.162;6.788;2022-10-22T21:27:00;11.80;92.10
55634;DHT22;41504;53.162;6.788;2022-10-22T21:29:28;11.80;92.10
55634;DHT22;41504;53.162;6.788;2022-10-22T21:31:54;11.80;92.10
55634;DHT22;41504;53.162;6.788;2022-10-22T21:34:20;11.80;92.10
55634;DHT22;41504;53.162;6.788;2022-10-22T21:36:45;11.80;92.10
55634;DHT22;41504;53.162;6.788;2022-10-22T21:39:16;11.80;92.10
55634;DHT22;41504;53.162;6.788;2022-10-22T21:41:42;11.80;92.10
55634;DHT22;41504;53.162;6.788;2022-10-22T21:44:11;11.80;92.10
55634;DHT22;41504;53.162;6.788;2022-10-22T21:46:42;11.80;92.10
55634;DHT22;41504;53.162;6.788;2022-10-22T21:49:11;11.90;92.10
55634;DHT22;41504;53.162;6.788;2022-10-22T21:51:36;11.80;92.10
55634;DHT22;41504;53.162;6.788;2022-10-22T21:54:03;11.80;92.10
55634;DHT22;41504;53.162;6.788;2022-10-22T21:56:31;11.80;92.10
55634;DHT22;41504;53.162;6.788;2022-10-22T21:58:58;11.80;92.10
55634;DHT22;41504;53.162;6.788;2022-10-22T22:01:27;11.90;92.10
55634;DHT22;41504;53.162;6.788;2022-10-22T22:03:53;11.80;92.10
55634;DHT22;41504;53.162;6.788;2022-10-22T22:06:21;11.80;92.10
55634;DHT22;41504;53.162;6.788;2022-10-22T22:08:47;11.80;92.10
55634;DHT22;41504;53.162;6.788;2022-10-22T22:11:16;11.80;92.10
55634;DHT22;41504;53.162;6.788;2022-10-22T22:13:43;11.80;92.40
55634;DHT22;41504;53.162;6.788;2022-10-22T22:16:14;11.80;92.10
55634;DHT22;41504;53.162;6.788;2022-10-22T22:18:43;11.80;92.20
55634;DHT22;41504;53.162;6.788;2022-10-22T22:21:11;11.70;92.10
55634;DHT22;41504;53.162;6.788;2022-10-22T22:23:39;11.80;92.20
55634;DHT22;41504;53.162;6.788;2022-10-22T22:26:06;11.80;92.20
55634;DHT22;41504;53.162;6.788;2022-10-22T22:28:32;11.70;92.20
55634;DHT22;41504;53.162;6.788;2022-10-22T22:30:58;11.80;92.20
55634;DHT22;41504;53.162;6.788;2022-10-22T22:33:27;11.70;92.20
55634;DHT22;41504;53.162;6.788;2022-10-22T22:35:57;11.70;92.20
55634;DHT22;41504;53.162;6.788;2022-10-22T22:38:23;11.70;92.20
55634;DHT22;41504;53.162;6.788;2022-10-22T22:40:49;11.70;92.20
55634;DHT22;41504;53.162;6.788;2022-10-22T22:43:15;11.60;92.20
55634;DHT22;41504;53.162;6.788;2022-10-22T22:45:40;11.60;92.20
55634;DHT22;41504;53.162;6.788;2022-10-22T22:48:06;11.60;92.30
55634;DHT22;41504;53.162;6.788;2022-10-22T22:50:32;11.60;92.30
55634;DHT22;41504;53.162;6.788;2022-10-22T22:52:59;11.60;92.30
55634;DHT22;41504;53.162;6.788;2022-10-22T22:55:25;11.60;92.30
55634;DHT22;41504;53.162;6.788;2022-10-22T22:57:51;11.60;92.30
55634;DHT22;41504;53.162;6.788;2022-10-22T23:00:17;11.60;92.30
55634;DHT22;41504;53.162;6.788;2022-10-22T23:02:42;11.60;92.30
55634;DHT22;41504;53.162;6.788;2022-10-22T23:05:10;11.60;92.30
55634;DHT22;41504;53.162;6.788;2022-10-22T23:07:35;11.60;92.30
55634;DHT22;41504;53.162;6.788;2022-10-22T23:10:01;11.60;92.30
55634;DHT22;41504;53.162;6.788;2022-10-22T23:12:27;11.60;92.30
55634;DHT22;41504;53.162;6.788;2022-10-22T23:14:53;11.60;92.30
55634;DHT22;41504;53.162;6.788;2022-10-22T23:17:19;11.50;92.40
55634;DHT22;41504;53.162;6.788;2022-10-22T23:19:45;11.50;92.40
55634;DHT22;41504;53.162;6.788;2022-10-22T23:22:10;11.50;92.40
55634;DHT22;41504;53.162;6.788;2022-10-22T23:24:37;11.50;92.40
55634;DHT22;41504;53.162;6.788;2022-10-22T23:27:06;11.40;92.40
55634;DHT22;41504;53.162;6.788;2022-10-22T23:29:33;11.40;92.40
55634;DHT22;41504;53.162;6.788;2022-10-22T23:32:03;11.40;92.40
55634;DHT22;41504;53.162;6.788;2022-10-22T23:34:29;11.40;92.40
55634;DHT22;41504;53.162;6.788;2022-10-22T23:36:56;11.40;92.40
55634;DHT22;41504;53.162;6.788;2022-10-22T23:39:24;11.40;92.40
55634;DHT22;41504;53.162;6.788;2022-10-22T23:41:52;11.40;92.40
55634;DHT22;41504;53.162;6.788;2022-10-22T23:44:18;11.40;92.50
55634;DHT22;41504;53.162;6.788;2022-10-22T23:46:44;11.40;92.50
55634;DHT22;41504;53.162;6.788;2022-10-22T23:49:10;11.40;92.40
55634;DHT22;41504;53.162;6.788;2022-10-22T23:51:37;11.40;92.40
55634;DHT22;41504;53.162;6.788;2022-10-22T23:54:05;11.40;92.40
55634;DHT22;41504;53.162;6.788;2022-10-22T23:56:34;11.30;92.40
55634;DHT22;41504;53.162;6.788;2022-10-22T23:59:03;11.30;92.40
